| time (UTC) | temp C | wind direction | speed KPH | gust KPH | rain 1hr cm | rain 24hr cm | rain mn cm | humidity % | barometer mb |
| 20260505101926 | 1 | 212 | 1.6 | 1.6 | 0.13 | 0.61 | 0.61 | 96 | 1015.4 |
| 20260505101421 | 1 | 170 | 1.6 | 1.6 | 0.30 | 0.61 | 0.61 | 96 | 1015.4 |
| 20260505100917 | 1 | 198 | 0.0 | 1.6 | 0.30 | 0.58 | 0.58 | 96 | 1015.4 |
| 20260505100414 | 1 | 173 | 0.0 | 0.0 | 0.43 | 0.56 | 0.56 | 96 | 1015.2 |
| 20260505095909 | 1 | 193 | 0.0 | 1.6 | 0.30 | 0.53 | 0.53 | 96 | 1015.4 |
| 20260505095407 | 2 | 176 | 0.0 | 1.6 | 0.30 | 0.51 | 0.51 | 95 | 1015.2 |
| 20260505094903 | 2 | 197 | 1.6 | 3.2 | 0.18 | 0.48 | 0.48 | 95 | 1015.5 |
| 20260505094400 | 2 | 326 | 4.8 | 4.8 | 0.00 | 0.46 | 0.46 | 95 | 1015.5 |
| 20260505093855 | 2 | 202 | 1.6 | 3.2 | 0.00 | 0.46 | 0.46 | 95 | 1015.6 |
| 20260505093353 | 2 | 195 | 1.6 | 1.6 | 0.13 | 0.46 | 0.46 | 95 | 1015.5 |
| 20260505092850 | 2 | 296 | 3.2 | 3.2 | 0.13 | 0.46 | 0.46 | 95 | 1015.2 |
| 20260505092348 | 2 | 8 | 6.4 | 9.7 | 0.00 | 0.43 | 0.43 | 95 | 1015.4 |
| 20260505091845 | 3 | 5 | 4.8 | 4.8 | 0.18 | 0.43 | 0.43 | 95 | 1015.5 |
| 20260505091343 | 2 | 161 | 1.6 | 1.6 | 0.18 | 0.43 | 0.43 | 95 | 1015.4 |
| 20260505090841 | 2 | 206 | 3.2 | 6.4 | 0.00 | 0.41 | 0.41 | 94 | 1015.4 |
| 20260505090339 | 3 | 254 | 4.8 | 6.4 | 0.18 | 0.41 | 0.41 | 94 | 1015.4 |
| 20260505085836 | 3 | 9 | 3.2 | 4.8 | 0.30 | 0.41 | 0.41 | 94 | 1015.5 |
| 20260505085334 | 3 | 132 | 1.6 | 3.2 | 0.13 | 0.38 | 0.38 | 94 | 1015.4 |
| 20260505084832 | 3 | 346 | 4.8 | 6.4 | 0.18 | 0.36 | 0.36 | 95 | 1015.1 |
| 20260505084330 | 4 | 287 | 3.2 | 4.8 | 0.30 | 0.36 | 0.36 | 95 | 1014.9 |
| 20260505083826 | 4 | 255 | 3.2 | 3.2 | 0.30 | 0.33 | 0.33 | 95 | 1015.0 |
| 20260505083324 | 4 | 157 | 0.0 | 0.0 | 0.30 | 0.30 | 0.30 | 94 | 1014.9 |
| 20260505082820 | 4 | 188 | 0.0 | 1.6 | 0.13 | 0.28 | 0.28 | 94 | 1014.8 |
| 20260505082317 | 5 | 172 | 3.2 | 3.2 | 0.18 | 0.25 | 0.25 | 94 | 1014.8 |
| 20260505081813 | 5 | 12 | 3.2 | 3.2 | 0.18 | 0.25 | 0.25 | 94 | 1014.7 |
| 20260505081310 | 5 | 180 | 1.6 | 1.6 | 0.00 | 0.23 | 0.23 | 94 | 1014.8 |
| 20260505080807 | 5 | 233 | 1.6 | 1.6 | 0.13 | 0.23 | 0.23 | 94 | 1014.9 |
| 20260505080303 | 5 | 214 | 0.0 | 1.6 | 0.13 | 0.23 | 0.23 | 94 | 1014.7 |
| 20260505075758 | 5 | 263 | 1.6 | 3.2 | 0.00 | 0.20 | 0.20 | 94 | 1014.7 |
| 20260505075255 | 5 | 180 | 1.6 | 3.2 | 0.00 | 0.20 | 0.20 | 94 | 1014.5 |
| 20260505074752 | 5 | 165 | 0.0 | 0.0 | 0.00 | 0.20 | 0.20 | 94 | 1014.9 |
| 20260505074249 | 5 | 201 | 0.0 | 0.0 | 0.00 | 0.20 | 0.20 | 94 | 1014.8 |
| 20260505073747 | 5 | 184 | 0.0 | 0.0 | 0.18 | 0.20 | 0.20 | 94 | 1014.9 |
| 20260505073245 | 5 | 180 | 0.0 | 0.0 | 0.18 | 0.20 | 0.20 | 93 | 1014.9 |
| 20260505072741 | 5 | 262 | 1.6 | 1.6 | 0.30 | 0.18 | 0.18 | 93 | 1015.0 |
| 20260505072238 | 5 | 186 | 0.0 | 0.0 | 0.61 | 0.18 | 0.18 | 93 | 1014.9 |
| 20260505071733 | 5 | 275 | 0.0 | 0.0 | 0.30 | 0.13 | 0.13 | 92 | 1015.0 |
| 20260505071230 | 5 | 200 | 0.0 | 0.0 | 0.36 | 0.10 | 0.10 | 91 | 1015.0 |
| 20260505070727 | 6 | 324 | 0.0 | 0.0 | 0.18 | 0.08 | 0.08 | 90 | 1014.9 |
| 20260505070224 | 6 | 324 | 1.6 | 1.6 | 0.00 | 0.05 | 0.05 | 90 | 1014.8 |
| 20260505065720 | 6 | 199 | 0.0 | 0.0 | 0.13 | 0.05 | 0.05 | 89 | 1015.0 |
| 20260505065217 | 6 | 28 | 3.2 | 3.2 | 0.13 | 0.05 | 0.05 | 88 | 1014.8 |
| 20260505064714 | 6 | 223 | 1.6 | 4.8 | 0.00 | 0.03 | 0.03 | 87 | 1014.8 |
| 20260505064212 | 6 | 344 | 4.8 | 6.4 | 0.18 | 0.03 | 0.03 | 86 | 1014.5 |
| 20260505063709 | 6 | 237 | 3.2 | 3.2 | 0.18 | 0.03 | 0.03 | 83 | 1014.7 |
| 20260505063205 | 7 | 190 | 1.6 | 3.2 | 0.00 | 0.00 | 0.00 | 82 | 1014.7 |
| 20260505062701 | 7 | 72 | 3.2 | 4.8 | 0.00 | 0.00 | 0.00 | 80 | 1014.8 |
| 20260505062159 | 7 | 190 | 3.2 | 3.2 | 0.00 | 0.00 | 0.00 | 80 | 1014.8 |
| 20260505061656 | 7 | 208 | 1.6 | 3.2 | 0.00 | 0.00 | 0.00 | 80 | 1014.5 |
| 20260505061154 | 7 | 249 | 1.6 | 3.2 | 0.00 | 0.00 | 0.00 | 81 | 1014.5 |
| 20260505060651 | 7 | 231 | 3.2 | 3.2 | 0.00 | 0.00 | 0.00 | 81 | 1014.7 |
| 20260505060148 | 7 | 176 | 1.6 | 1.6 | 0.00 | 0.00 | 0.00 | 82 | 1014.4 |
| 20260505055643 | 7 | 185 | 1.6 | 1.6 | 0.00 | 0.10 | 0.10 | 81 | 1014.4 |
| 20260505055140 | 8 | 229 | 4.8 | 9.7 | 0.00 | 0.10 | 0.10 | 79 | 1014.3 |
| 20260505054638 | 8 | 319 | 6.4 | 9.7 | 0.00 | 0.10 | 0.10 | 77 | 1014.1 |
| 20260505054135 | 8 | 122 | 1.6 | 1.6 | 0.00 | 0.10 | 0.10 | 76 | 1014.0 |
| 20260505053633 | 9 | 301 | 4.8 | 4.8 | 0.00 | 0.10 | 0.10 | 80 | 1013.6 |
| 20260505053129 | 10 | 179 | 0.0 | 1.6 | 0.00 | 0.10 | 0.10 | 92 | 1013.3 |
| 20260505052626 | 10 | 185 | 0.0 | 0.0 | 0.00 | 0.10 | 0.10 | 92 | 1013.4 |
| 20260505052124 | 10 | 196 | 0.0 | 0.0 | 0.00 | 0.10 | 0.10 | 92 | 1013.0 |
| 20260505051621 | 10 | 184 | 0.0 | 0.0 | 0.00 | 0.10 | 0.10 | 92 | 1013.2 |
| 20260505051118 | 9 | 179 | 0.0 | 0.0 | 0.00 | 0.10 | 0.10 | 92 | 1013.0 |
| 20260505050616 | 9 | 179 | 0.0 | 0.0 | 0.00 | 0.10 | 0.10 | 91 | 1013.0 |
| 20260505050114 | 9 | 179 | 0.0 | 0.0 | 0.00 | 0.10 | 0.10 | 91 | 1012.9 |
| 20260505041544 | 9 | 182 | 0.0 | 0.0 | 0.00 | 0.10 | 0.10 | 92 | 1012.8 |
| 20260505041041 | 9 | 181 | 0.0 | 0.0 | 0.00 | 0.10 | 0.10 | 92 | 1012.8 |
| 20260505040538 | 8 | 172 | 0.0 | 0.0 | 0.00 | 0.10 | 0.10 | 92 | 1012.7 |
| 20260505040036 | 8 | 170 | 0.0 | 0.0 | 0.00 | 0.10 | 0.10 | 93 | 1012.7 |
| 20260505035531 | 8 | 170 | 0.0 | 0.0 | 0.00 | 0.10 | 0.10 | 93 | 1012.6 |
| 20260505035028 | 8 | 170 | 0.0 | 0.0 | 0.00 | 0.10 | 0.10 | 93 | 1012.7 |
| 20260505034525 | 8 | 170 | 0.0 | 0.0 | 0.00 | 0.10 | 0.10 | 93 | 1012.6 |
| 20260505034022 | 8 | 170 | 0.0 | 0.0 | 0.00 | 0.10 | 0.10 | 93 | 1012.7 |
| 20260505033519 | 8 | 170 | 0.0 | 0.0 | 0.00 | 0.10 | 0.10 | 92 | 1012.5 |
| 20260505033017 | 8 | 170 | 0.0 | 0.0 | 0.00 | 0.10 | 0.10 | 92 | 1012.6 |
| 20260505032514 | 8 | 170 | 0.0 | 0.0 | 0.00 | 0.10 | 0.10 | 92 | 1012.7 |
| 20260505032010 | 9 | 170 | 0.0 | 0.0 | 0.00 | 0.10 | 0.10 | 92 | 1012.3 |
| 20260505031508 | 9 | 170 | 0.0 | 0.0 | 0.00 | 0.10 | 0.10 | 91 | 1012.3 |
| 20260505031004 | 9 | 170 | 0.0 | 0.0 | 0.00 | 0.10 | 0.10 | 91 | 1012.2 |
| 20260505030501 | 9 | 170 | 0.0 | 0.0 | 0.00 | 0.10 | 0.10 | 91 | 1012.2 |
| 20260505025956 | 9 | 170 | 0.0 | 0.0 | 0.00 | 0.10 | 0.10 | 90 | 1012.2 |
| 20260505025453 | 9 | 170 | 0.0 | 0.0 | 0.00 | 0.10 | 0.10 | 90 | 1012.1 |
| 20260505024952 | 10 | 170 | 0.0 | 0.0 | 0.00 | 0.10 | 0.10 | 89 | 1012.0 |
| 20260505024449 | 10 | 170 | 0.0 | 0.0 | 0.00 | 0.10 | 0.10 | 89 | 1012.0 |
| 20260505023946 | 10 | 170 | 0.0 | 0.0 | 0.00 | 0.10 | 0.10 | 88 | 1012.0 |
| 20260505023443 | 10 | 170 | 0.0 | 0.0 | 0.00 | 0.10 | 0.10 | 87 | 1011.8 |
| 20260505022940 | 10 | 170 | 0.0 | 0.0 | 0.00 | 0.10 | 0.10 | 86 | 1011.5 |
| 20260505022438 | 10 | 170 | 0.0 | 0.0 | 0.00 | 0.10 | 0.10 | 87 | 1011.5 |
| 20260505021935 | 10 | 170 | 0.0 | 0.0 | 0.00 | 0.10 | 0.10 | 87 | 1011.4 |
| 20260505021431 | 10 | 170 | 0.0 | 0.0 | 0.00 | 0.10 | 0.10 | 86 | 1011.6 |
| 20260505020927 | 10 | 170 | 0.0 | 0.0 | 0.00 | 0.10 | 0.10 | 87 | 1011.5 |
| 20260505020422 | 10 | 170 | 0.0 | 0.0 | 0.00 | 0.10 | 0.10 | 85 | 1011.6 |
| 20260505015919 | 10 | 170 | 0.0 | 0.0 | 0.00 | 0.10 | 0.10 | 84 | 1011.8 |
| 20260505015417 | 10 | 170 | 0.0 | 0.0 | 0.00 | 0.10 | 0.10 | 84 | 1011.5 |
| 20260505014914 | 10 | 170 | 0.0 | 0.0 | 0.00 | 0.10 | 0.10 | 84 | 1011.8 |
| 20260505014411 | 10 | 170 | 0.0 | 0.0 | 0.00 | 0.10 | 0.10 | 84 | 1011.8 |
| 20260505013908 | 10 | 168 | 0.0 | 0.0 | 0.00 | 0.10 | 0.10 | 83 | 1011.5 |
| 20260505013404 | 11 | 168 | 0.0 | 0.0 | 0.00 | 0.10 | 0.10 | 83 | 1011.8 |
| 20260505012903 | 11 | 168 | 0.0 | 0.0 | 0.00 | 0.10 | 0.10 | 82 | 1011.8 |
| 20260505012400 | 11 | 167 | 0.0 | 0.0 | 0.00 | 0.10 | 0.10 | 80 | 1011.9 |
| 20260505011856 | 11 | 153 | 0.0 | 1.6 | 0.00 | 0.10 | 0.10 | 79 | 1011.8 |
| 20260505011353 | 11 | 130 | 3.2 | 3.2 | 0.00 | 0.10 | 0.10 | 80 | 1011.8 |
| 20260505010849 | 10 | 149 | 1.6 | 1.6 | 0.00 | 0.10 | 0.10 | 81 | 1011.8 |
| 20260505010345 | 10 | 169 | 0.0 | 0.0 | 0.00 | 0.10 | 0.10 | 80 | 1011.5 |
| 20260505005842 | 10 | 175 | 0.0 | 0.0 | 0.00 | 0.10 | 0.10 | 79 | 1011.6 |
| 20260505005338 | 10 | 180 | 0.0 | 0.0 | 0.00 | 0.10 | 0.10 | 78 | 1011.3 |
| 20260505004836 | 10 | 179 | 0.0 | 0.0 | 0.00 | 0.10 | 0.10 | 78 | 1011.5 |
| 20260505004332 | 10 | 179 | 0.0 | 1.6 | 0.00 | 0.10 | 0.10 | 79 | 1011.4 |
| 20260505003830 | 11 | 178 | 0.0 | 0.0 | 0.00 | 0.10 | 0.10 | 77 | 1011.4 |
| 20260505003327 | 10 | 184 | 6.4 | 6.4 | 0.13 | 0.10 | 0.10 | 75 | 1011.3 |
| 20260505002822 | 11 | 178 | 0.0 | 0.0 | 0.13 | 0.10 | 0.10 | 80 | 1011.2 |
| 20260505002320 | 11 | 174 | 0.0 | 0.0 | 0.18 | 0.08 | 0.08 | 76 | 1011.5 |
| 20260505001818 | 11 | 181 | 1.6 | 1.6 | 0.18 | 0.08 | 0.08 | 73 | 1011.8 |
| 20260505001315 | 12 | 177 | 1.6 | 1.6 | 0.13 | 0.05 | 0.05 | 70 | 1011.6 |
| 20260505000812 | 12 | 186 | 0.0 | 0.0 | 0.13 | 0.05 | 0.05 | 68 | 1011.3 |
| 20260505000310 | 13 | 177 | 0.0 | 0.0 | 0.00 | 0.03 | 0.03 | 64 | 1011.5 |
| 20260504235806 | 13 | 196 | 1.6 | 3.2 | 0.00 | 0.03 | 0.03 | 57 | 1011.3 |
| 20260504235304 | 14 | 179 | 0.0 | 0.0 | 0.00 | 0.03 | 0.03 | 57 | 1011.1 |
| 20260504234800 | 15 | 164 | 3.2 | 3.2 | 0.00 | 0.03 | 0.03 | 48 | 1010.8 |
| 20260504234258 | 16 | 234 | 4.8 | 6.4 | 0.00 | 0.03 | 0.03 | 45 | 1010.9 |
| 20260504233754 | 16 | 191 | 1.6 | 1.6 | 0.00 | 0.03 | 0.03 | 45 | 1010.4 |
| 20260504233249 | 16 | 197 | 0.0 | 1.6 | 0.00 | 0.03 | 0.03 | 45 | 1010.5 |
| 20260504232746 | 16 | 190 | 0.0 | 0.0 | 0.00 | 0.03 | 0.03 | 44 | 1010.4 |
| 20260504232243 | 16 | 191 | 0.0 | 0.0 | 0.00 | 0.03 | 0.03 | 44 | 1010.1 |
| 20260504231740 | 16 | 188 | 1.6 | 1.6 | 0.00 | 0.03 | 0.03 | 43 | 1010.2 |
| 20260504231237 | 16 | 187 | 0.0 | 1.6 | 0.00 | 0.03 | 0.03 | 42 | 1010.1 |
| 20260504230732 | 16 | 230 | 0.0 | 1.6 | 0.00 | 0.03 | 0.03 | 42 | 1009.9 |
| 20260504230231 | 16 | 205 | 0.0 | 0.0 | 0.00 | 0.03 | 0.03 | 43 | 1009.9 |
| 20260504225729 | 16 | 214 | 1.6 | 3.2 | 0.00 | 0.03 | 0.03 | 42 | 1009.8 |
| 20260504225225 | 17 | 237 | 1.6 | 1.6 | 0.00 | 0.03 | 0.03 | 42 | 1009.8 |
| 20260504224723 | 17 | 327 | 4.8 | 4.8 | 0.00 | 0.03 | 0.03 | 42 | 1009.8 |
| 20260504224220 | 17 | 245 | 3.2 | 3.2 | 0.00 | 0.03 | 0.03 | 42 | 1009.8 |
| 20260504223716 | 16 | 298 | 1.6 | 1.6 | 0.00 | 0.03 | 0.03 | 43 | 1009.8 |
| 20260504223211 | 16 | 194 | 0.0 | 0.0 | 0.00 | 0.03 | 0.03 | 43 | 1009.7 |
| 20260504222709 | 16 | 241 | 3.2 | 6.4 | 0.00 | 0.03 | 0.03 | 43 | 1009.7 |
| 20260504222205 | 16 | 212 | 1.6 | 1.6 | 0.00 | 0.03 | 0.03 | 43 | 1009.5 |
| 20260504221703 | 16 | 247 | 3.2 | 4.8 | 0.00 | 0.03 | 0.03 | 42 | 1009.8 |
| 20260504221200 | 17 | 336 | 3.2 | 4.8 | 0.00 | 0.03 | 0.03 | 42 | 1009.8 |
| 20260504220656 | 17 | 241 | 1.6 | 3.2 | 0.00 | 0.03 | 0.03 | 42 | 1009.8 |
| 20260504220154 | 17 | 324 | 6.4 | 9.7 | 0.00 | 0.03 | 0.03 | 42 | 1009.7 |
| 20260504215650 | 17 | 240 | 4.8 | 6.4 | 0.00 | 0.03 | 0.03 | 43 | 1010.0 |
| 20260504215147 | 16 | 291 | 4.8 | 6.4 | 0.00 | 0.03 | 0.03 | 43 | 1010.2 |
| 20260504214643 | 16 | 174 | 3.2 | 3.2 | 0.00 | 0.03 | 0.03 | 45 | 1010.4 |
| 20260504214139 | 16 | 227 | 4.8 | 6.4 | 0.00 | 0.03 | 0.03 | 44 | 1010.4 |
| 20260504213636 | 16 | 228 | 1.6 | 1.6 | 0.00 | 0.03 | 0.03 | 47 | 1010.5 |
| 20260504213133 | 16 | 207 | 1.6 | 1.6 | 0.00 | 0.03 | 0.03 | 49 | 1010.6 |
| 20260504212629 | 16 | 201 | 1.6 | 3.2 | 0.00 | 0.03 | 0.03 | 51 | 1010.4 |
| 20260504212126 | 15 | 304 | 1.6 | 1.6 | 0.00 | 0.03 | 0.03 | 53 | 1010.4 |
| 20260504211624 | 15 | 201 | 1.6 | 1.6 | 0.00 | 0.03 | 0.03 | 51 | 1010.4 |
| 20260504211120 | 15 | 100 | 1.6 | 1.6 | 0.00 | 0.03 | 0.03 | 52 | 1010.1 |
| 20260504210618 | 15 | 176 | 0.0 | 0.0 | 0.18 | 0.03 | 0.03 | 54 | 1010.4 |
| 20260504210114 | 15 | 53 | 3.2 | 4.8 | 0.18 | 0.03 | 0.03 | 51 | 1010.5 |
| 20260504205612 | 14 | 48 | 6.4 | 6.4 | 0.18 | 0.03 | 0.03 | 56 | 1011.1 |
| 20260504205109 | 15 | 274 | 4.8 | 6.4 | 0.00 | 0.00 | 0.00 | 49 | 1011.2 |
| 20260504204608 | 16 | 287 | 8.0 | 9.7 | 0.00 | 0.00 | 0.00 | 44 | 1011.2 |
| 20260504204106 | 16 | 230 | 3.2 | 4.8 | 0.00 | 0.00 | 0.00 | 46 | 1011.4 |
| 20260504203604 | 16 | 185 | 1.6 | 1.6 | 0.00 | 0.00 | 0.00 | 45 | 1011.4 |
| 20260504203101 | 15 | 180 | 0.0 | 0.0 | 0.00 | 0.00 | 0.00 | 46 | 1011.5 |
| 20260504202556 | 15 | 55 | 4.8 | 6.4 | 0.00 | 0.00 | 0.00 | 45 | 1011.2 |
| 20260504202054 | 16 | 58 | 3.2 | 3.2 | 0.00 | 0.00 | 0.00 | 46 | 1011.4 |
| 20260504201550 | 16 | 29 | 4.8 | 6.4 | 0.00 | 0.00 | 0.00 | 45 | 1011.4 |
| 20260504201048 | 16 | 42 | 8.0 | 11.3 | 0.00 | 0.00 | 0.00 | 44 | 1011.3 |
| 20260504200544 | 16 | 65 | 3.2 | 4.8 | 0.00 | 0.00 | 0.00 | 44 | 1011.2 |
| 20260504200042 | 16 | 26 | 12.9 | 16.1 | 0.00 | 0.00 | 0.00 | 45 | 1011.2 |
| 20260504195538 | 15 | 332 | 3.2 | 3.2 | 0.00 | 0.00 | 0.00 | 49 | 1011.2 |
| 20260504195034 | 15 | 288 | 4.8 | 9.7 | 0.00 | 0.00 | 0.00 | 46 | 1011.3 |
| 20260504194531 | 16 | 207 | 3.2 | 4.8 | 0.00 | 0.00 | 0.00 | 44 | 1011.1 |
| 20260504194026 | 17 | 204 | 0.0 | 1.6 | 0.00 | 0.00 | 0.00 | 40 | 1010.7 |
| 20260504193523 | 17 | 357 | 4.8 | 4.8 | 0.00 | 0.00 | 0.00 | 37 | 1010.9 |
| 20260504193022 | 18 | 286 | 3.2 | 9.7 | 0.00 | 0.00 | 0.00 | 35 | 1010.6 |
| 20260504192520 | 18 | 238 | 3.2 | 3.2 | 0.00 | 0.00 | 0.00 | 34 | 1010.2 |
| 20260504192018 | 18 | 168 | 0.0 | 0.0 | 0.00 | 0.00 | 0.00 | 34 | 1010.0 |
| 20260504191515 | 18 | 233 | 1.6 | 3.2 | 0.00 | 0.00 | 0.00 | 33 | 1010.1 |
| 20260504191011 | 18 | 177 | 0.0 | 0.0 | 0.00 | 0.00 | 0.00 | 33 | 1009.8 |
| 20260504190507 | 18 | 118 | 3.2 | 3.2 | 0.00 | 0.00 | 0.00 | 33 | 1009.5 |
| 20260504190003 | 18 | 178 | 0.0 | 1.6 | 0.00 | 0.00 | 0.00 | 31 | 1009.5 |
| 20260504185501 | 19 | 208 | 3.2 | 4.8 | 0.00 | 0.00 | 0.00 | 31 | 1009.5 |
| 20260504184957 | 20 | 260 | 8.0 | 12.9 | 0.00 | 0.00 | 0.00 | 28 | 1009.9 |
| 20260504184452 | 21 | 238 | 3.2 | 3.2 | 0.00 | 0.00 | 0.00 | 27 | 1009.2 |
| 20260504183948 | 21 | 174 | 3.2 | 3.2 | 0.00 | 0.00 | 0.00 | 28 | 1009.0 |
| 20260504183446 | 21 | 180 | 3.2 | 3.2 | 0.00 | 0.00 | 0.00 | 30 | 1009.1 |
| 20260504182944 | 21 | 193 | 0.0 | 1.6 | 0.00 | 0.00 | 0.00 | 29 | 1009.2 |
| 20260504182440 | 21 | 170 | 1.6 | 1.6 | 0.00 | 0.00 | 0.00 | 29 | 1009.3 |
| 20260504181938 | 21 | 178 | 3.2 | 3.2 | 0.00 | 0.00 | 0.00 | 29 | 1009.4 |
| 20260504181434 | 21 | 184 | 0.0 | 1.6 | 0.00 | 0.00 | 0.00 | 28 | 1009.3 |
| 20260504180933 | 22 | 196 | 1.6 | 1.6 | 0.00 | 0.00 | 0.00 | 27 | 1009.4 |
| 20260504180432 | 22 | 223 | 0.0 | 1.6 | 0.00 | 0.00 | 0.00 | 26 | 1009.2 |
| 20260504175930 | 22 | 161 | 0.0 | 1.6 | 0.00 | 0.00 | 0.00 | 26 | 1009.3 |
| 20260504175426 | 22 | 180 | 0.0 | 1.6 | 0.00 | 0.00 | 0.00 | 27 | 1009.1 |
| 20260504174924 | 23 | 203 | 1.6 | 3.2 | 0.00 | 0.00 | 0.00 | 26 | 1009.2 |
| 20260504174421 | 22 | 178 | 0.0 | 1.6 | 0.00 | 0.00 | 0.00 | 27 | 1009.2 |
| 20260504173919 | 22 | 206 | 3.2 | 3.2 | 0.00 | 0.00 | 0.00 | 26 | 1009.4 |
| 20260504173415 | 22 | 209 | 3.2 | 3.2 | 0.00 | 0.00 | 0.00 | 26 | 1009.5 |
| 20260504172913 | 22 | 221 | 1.6 | 3.2 | 0.00 | 0.00 | 0.00 | 26 | 1009.7 |
| 20260504172408 | 22 | 181 | 1.6 | 3.2 | 0.00 | 0.00 | 0.00 | 25 | 1009.5 |
| 20260504171905 | 22 | 216 | 3.2 | 4.8 | 0.00 | 0.00 | 0.00 | 25 | 1009.7 |
| 20260504171402 | 23 | 254 | 4.8 | 4.8 | 0.00 | 0.00 | 0.00 | 25 | 1009.5 |
| 20260504170859 | 23 | 240 | 4.8 | 4.8 | 0.00 | 0.00 | 0.00 | 25 | 1009.4 |
| 20260504170355 | 22 | 157 | 1.6 | 3.2 | 0.00 | 0.00 | 0.00 | 27 | 1009.7 |
| 20260504160314 | 20 | 177 | 0.0 | 0.0 | 0.00 | 0.00 | 0.00 | 33 | 1009.9 |
| 20260504150739 | 16 | 133 | 1.6 | 3.2 | 0.00 | 0.00 | 0.00 | 40 | 1010.1 |
| 20260504150236 | 15 | 149 | 1.6 | 1.6 | 0.00 | 0.00 | 0.00 | 41 | 1010.2 |
| 20260504141205 | 12 | 185 | 0.0 | 0.0 | 0.00 | 0.00 | 0.00 | 54 | 1010.6 |
| 20260504140702 | 12 | 169 | 0.0 | 0.0 | 0.00 | 0.00 | 0.00 | 54 | 1010.6 |
| 20260504140157 | 11 | 168 | 0.0 | 0.0 | 0.00 | 0.00 | 0.00 | 53 | 1010.6 |
| 20260504130626 | 6 | 177 | 0.0 | 0.0 | 0.00 | 0.00 | 0.00 | 66 | 1010.7 |
| 20260504130123 | 6 | 180 | 0.0 | 0.0 | 0.00 | 0.00 | 0.00 | 71 | 1010.6 |
| 20260504110514 | 4 | 204 | 0.0 | 0.0 | 0.00 | 0.00 | 0.00 | 71 | 1010.6 |